createdAt,value
2022-11-26T00:01:02.036Z,6.02
2022-11-26T00:03:49.464Z,6.00
2022-11-26T00:06:38.102Z,5.96
2022-11-26T00:09:25.229Z,5.96
2022-11-26T00:12:22.198Z,5.94
2022-11-26T00:15:21.195Z,5.87
2022-11-26T00:18:07.298Z,5.90
2022-11-26T00:21:00.148Z,5.81
2022-11-26T00:23:46.532Z,5.82
2022-11-26T00:26:32.437Z,5.83
2022-11-26T00:29:18.693Z,5.76
2022-11-26T00:32:11.956Z,5.75
2022-11-26T00:34:58.223Z,5.74
2022-11-26T00:37:47.379Z,5.67
2022-11-26T00:40:33.919Z,5.61
2022-11-26T00:43:20.110Z,5.58
2022-11-26T00:46:05.926Z,5.51
2022-11-26T00:48:52.180Z,5.56
2022-11-26T00:51:38.525Z,5.46
2022-11-26T00:54:24.592Z,5.51
2022-11-26T00:57:11.299Z,5.49
2022-11-26T00:59:57.500Z,5.44
2022-11-26T01:02:43.398Z,5.41
2022-11-26T01:05:33.767Z,5.44
2022-11-26T01:08:30.058Z,5.40
2022-11-26T01:11:21.210Z,5.38
2022-11-26T01:14:07.308Z,5.33
2022-11-26T01:16:55.696Z,5.38
2022-11-26T01:19:41.496Z,5.25
2022-11-26T01:22:27.491Z,5.31
2022-11-26T01:25:13.527Z,5.35
2022-11-26T01:27:59.466Z,5.38
2022-11-26T01:30:46.471Z,5.36
2022-11-26T01:33:32.659Z,5.29
2022-11-26T01:36:27.734Z,5.31
2022-11-26T01:39:19.033Z,5.25
2022-11-26T01:42:35.055Z,5.22
2022-11-26T01:45:23.030Z,5.26
2022-11-26T01:48:26.789Z,5.17
2022-11-26T01:51:13.538Z,5.17
2022-11-26T01:54:00.284Z,5.25
2022-11-26T01:56:52.449Z,5.21
2022-11-26T01:59:41.175Z,5.11
2022-11-26T02:02:28.960Z,5.16
2022-11-26T02:05:24.548Z,5.17
2022-11-26T02:08:12.114Z,5.11
2022-11-26T02:10:58.431Z,5.15
2022-11-26T02:13:45.866Z,5.10
2022-11-26T02:16:46.364Z,5.09
2022-11-26T02:19:56.650Z,5.08
2022-11-26T02:22:57.890Z,5.09
2022-11-26T02:25:58.912Z,5.00
2022-11-26T02:29:03.195Z,5.03
2022-11-26T02:32:24.931Z,5.04
2022-11-26T02:35:18.660Z,4.98
2022-11-26T02:38:16.104Z,4.97
2022-11-26T02:41:02.364Z,5.00
2022-11-26T02:43:48.409Z,4.98
2022-11-26T02:46:34.581Z,5.03
2022-11-26T02:49:21.999Z,4.99
2022-11-26T02:52:08.362Z,5.01
2022-11-26T02:54:56.001Z,4.99
2022-11-26T02:57:46.965Z,5.01
2022-11-26T03:00:34.893Z,5.00
2022-11-26T03:03:26.165Z,5.02
2022-11-26T03:06:13.696Z,5.05
2022-11-26T03:08:59.611Z,4.99
2022-11-26T03:11:45.744Z,4.96
2022-11-26T03:14:31.713Z,4.95
2022-11-26T03:17:18.338Z,4.99
2022-11-26T03:20:05.486Z,4.93
2022-11-26T03:22:51.279Z,4.92
2022-11-26T03:25:37.499Z,4.93
2022-11-26T03:28:24.422Z,4.92
2022-11-26T03:31:10.492Z,4.96
2022-11-26T03:33:56.562Z,4.99
2022-11-26T03:36:43.131Z,4.97
2022-11-26T03:39:29.071Z,4.98
2022-11-26T03:42:14.968Z,5.03
2022-11-26T03:45:01.215Z,5.03
2022-11-26T03:47:47.200Z,5.03
2022-11-26T03:50:33.227Z,5.03
2022-11-26T03:53:19.179Z,5.08
2022-11-26T03:56:05.537Z,5.13
2022-11-26T03:58:51.602Z,5.12
2022-11-26T04:01:37.642Z,4.97
2022-11-26T04:04:23.479Z,5.08
2022-11-26T04:07:09.647Z,5.06
2022-11-26T04:09:55.333Z,5.03
2022-11-26T04:12:41.360Z,5.06
2022-11-26T04:15:27.412Z,5.07
2022-11-26T04:18:13.281Z,5.04
2022-11-26T04:20:59.282Z,5.01
2022-11-26T04:23:45.178Z,5.00
2022-11-26T04:26:31.195Z,5.04
2022-11-26T04:29:17.063Z,5.02
2022-11-26T04:32:04.222Z,5.06
2022-11-26T04:34:50.275Z,5.03
2022-11-26T04:37:36.371Z,5.02
2022-11-26T04:40:22.335Z,5.05
2022-11-26T04:43:08.463Z,5.09
2022-11-26T04:45:54.516Z,5.08
2022-11-26T04:48:40.460Z,5.10
2022-11-26T04:51:26.538Z,5.13
2022-11-26T04:54:13.354Z,5.11
2022-11-26T04:56:59.456Z,5.13
2022-11-26T04:59:45.660Z,5.17
2022-11-26T05:02:31.834Z,5.18
2022-11-26T05:05:17.837Z,5.17
2022-11-26T05:08:04.267Z,5.17
2022-11-26T05:10:54.456Z,5.19
2022-11-26T05:13:40.360Z,5.19
2022-11-26T05:16:26.493Z,5.21
2022-11-26T05:19:12.292Z,5.20
2022-11-26T05:21:58.156Z,5.17
2022-11-26T05:24:44.132Z,5.06
2022-11-26T05:27:30.067Z,5.14
2022-11-26T05:30:16.392Z,5.15
2022-11-26T05:33:02.515Z,5.14
2022-11-26T05:35:48.535Z,5.18
2022-11-26T05:38:34.647Z,5.16
2022-11-26T05:41:20.755Z,5.11
2022-11-26T05:44:07.198Z,5.15
2022-11-26T05:46:52.934Z,5.16
2022-11-26T05:49:38.800Z,5.17
2022-11-26T05:52:24.834Z,5.16
2022-11-26T05:55:10.719Z,5.18
2022-11-26T05:57:56.587Z,5.19
2022-11-26T06:00:42.599Z,5.24
2022-11-26T06:03:28.649Z,5.24
2022-11-26T06:06:14.761Z,5.23
2022-11-26T06:09:00.806Z,5.12
2022-11-26T06:11:49.448Z,5.24
2022-11-26T06:14:37.214Z,5.18
2022-11-26T06:17:26.362Z,5.18
2022-11-26T06:20:13.218Z,5.14
2022-11-26T06:22:59.118Z,5.11
2022-11-26T06:25:45.163Z,5.12
2022-11-26T06:28:31.076Z,5.11
2022-11-26T06:31:17.105Z,5.17
2022-11-26T06:34:03.087Z,5.11
2022-11-26T06:36:48.975Z,5.13
2022-11-26T06:39:36.265Z,5.16
2022-11-26T06:42:22.455Z,5.16
2022-11-26T06:45:08.999Z,5.18
2022-11-26T06:47:55.507Z,5.18
2022-11-26T06:50:41.460Z,5.17
2022-11-26T06:53:27.259Z,5.15
2022-11-26T06:56:18.735Z,5.17
2022-11-26T06:59:05.378Z,5.21
2022-11-26T07:01:51.752Z,5.23
2022-11-26T07:04:38.138Z,5.23
2022-11-26T07:07:24.346Z,5.27
2022-11-26T07:10:10.433Z,5.29
2022-11-26T07:12:56.610Z,5.34
2022-11-26T07:15:42.401Z,5.39
2022-11-26T07:18:28.351Z,5.33
2022-11-26T07:21:14.408Z,5.36
2022-11-26T07:24:00.418Z,5.38
2022-11-26T07:26:46.349Z,5.42
2022-11-26T07:29:32.639Z,5.46
2022-11-26T07:32:18.748Z,5.44
2022-11-26T07:35:05.592Z,5.48
2022-11-26T07:37:51.420Z,5.52
2022-11-26T07:40:37.352Z,5.39
2022-11-26T07:43:23.455Z,5.42
2022-11-26T07:46:13.941Z,5.35
2022-11-26T07:48:59.928Z,5.35
2022-11-26T07:51:45.936Z,5.38
2022-11-26T07:54:32.312Z,5.46
2022-11-26T07:57:18.441Z,5.45
2022-11-26T08:00:05.075Z,5.50
2022-11-26T08:02:58.064Z,5.55
2022-11-26T08:05:45.213Z,5.62
2022-11-26T08:08:31.127Z,5.62
2022-11-26T08:11:22.557Z,5.62
2022-11-26T08:14:12.785Z,5.69
2022-11-26T08:16:59.151Z,5.66
2022-11-26T08:19:45.594Z,5.71
2022-11-26T08:22:31.551Z,5.77
2022-11-26T08:25:17.801Z,5.77
2022-11-26T08:28:04.095Z,5.79
2022-11-26T08:30:50.220Z,5.82
2022-11-26T08:33:36.515Z,5.91
2022-11-26T08:36:22.945Z,5.94
2022-11-26T08:39:15.359Z,5.95
2022-11-26T08:42:01.656Z,6.04
2022-11-26T08:44:48.145Z,6.09
2022-11-26T08:47:33.985Z,6.11
2022-11-26T08:50:20.873Z,6.17
2022-11-26T08:53:07.089Z,6.23
2022-11-26T08:56:00.171Z,6.25
2022-11-26T08:58:49.007Z,6.36
2022-11-26T09:01:35.471Z,6.27
2022-11-26T09:04:21.588Z,6.33
2022-11-26T09:07:08.013Z,6.41
2022-11-26T09:09:53.772Z,6.45
2022-11-26T09:12:39.720Z,6.55
2022-11-26T09:15:25.751Z,6.58
2022-11-26T09:18:12.135Z,6.67
2022-11-26T09:21:02.783Z,6.69
2022-11-26T09:23:49.243Z,6.80
2022-11-26T09:26:35.542Z,6.87
2022-11-26T09:29:23.124Z,7.00
2022-11-26T09:32:24.393Z,7.06
2022-11-26T09:35:11.965Z,7.05
2022-11-26T09:37:57.980Z,7.28
2022-11-26T09:41:16.421Z,7.36
2022-11-26T09:44:41.663Z,7.47
2022-11-26T09:47:32.054Z,7.66
2022-11-26T09:50:26.307Z,7.77
2022-11-26T09:53:21.634Z,7.85
2022-11-26T09:56:13.867Z,7.84
2022-11-26T09:59:03.802Z,8.11
2022-11-26T10:01:49.958Z,8.08
2022-11-26T10:04:37.703Z,8.20
2022-11-26T10:07:52.454Z,8.30
2022-11-26T10:10:49.393Z,8.41
2022-11-26T10:13:50.592Z,8.50
2022-11-26T10:16:56.953Z,8.63
2022-11-26T10:19:52.010Z,8.64
2022-11-26T10:22:57.161Z,8.64
2022-11-26T10:25:50.071Z,8.78
2022-11-26T10:28:41.087Z,8.88
2022-11-26T10:31:32.068Z,8.94
2022-11-26T10:34:39.467Z,9.02
2022-11-26T10:37:27.416Z,9.04
2022-11-26T10:40:26.563Z,9.18
2022-11-26T10:43:21.892Z,9.22
2022-11-26T10:46:07.716Z,9.30
2022-11-26T10:48:53.568Z,9.35
2022-11-26T10:51:39.971Z,9.42
2022-11-26T10:54:34.854Z,9.50
2022-11-26T10:57:21.323Z,9.61
2022-11-26T11:00:15.479Z,9.71
2022-11-26T11:03:02.580Z,9.75
2022-11-26T11:05:48.660Z,9.83
2022-11-26T11:08:34.815Z,9.92
2022-11-26T11:11:38.761Z,9.97
2022-11-26T11:14:29.117Z,10.01
2022-11-26T11:17:25.570Z,10.05
2022-11-26T11:20:14.789Z,10.06
2022-11-26T11:23:31.113Z,10.23
2022-11-26T11:26:40.710Z,10.22
2022-11-26T11:29:31.467Z,10.31
2022-11-26T11:32:38.130Z,10.24
2022-11-26T11:35:27.149Z,10.34
2022-11-26T11:38:24.944Z,10.34
2022-11-26T11:41:23.420Z,10.40
2022-11-26T11:44:20.607Z,10.52
2022-11-26T11:47:11.100Z,10.60
2022-11-26T11:50:06.275Z,10.58
2022-11-26T11:53:10.990Z,10.59
2022-11-26T11:56:09.252Z,10.61
2022-11-26T11:59:07.482Z,10.60
2022-11-26T12:02:20.990Z,10.58
2022-11-26T12:05:23.140Z,10.56
2022-11-26T12:08:15.811Z,10.54
2022-11-26T12:11:22.303Z,10.47
2022-11-26T12:14:14.808Z,10.45
2022-11-26T12:17:27.799Z,10.56
2022-11-26T12:21:07.488Z,10.52
2022-11-26T12:23:58.617Z,10.61
2022-11-26T12:27:08.207Z,10.46
2022-11-26T12:30:08.613Z,10.66
2022-11-26T12:32:55.827Z,10.63
2022-11-26T12:35:54.076Z,10.67
2022-11-26T12:38:46.751Z,10.67
2022-11-26T12:41:35.091Z,10.75
2022-11-26T12:44:37.334Z,10.67
2022-11-26T12:47:37.211Z,10.62
2022-11-26T12:50:35.079Z,10.60
2022-11-26T12:53:47.200Z,10.74
2022-11-26T12:56:38.540Z,10.81
2022-11-26T12:59:24.653Z,10.72
2022-11-26T13:02:35.606Z,10.83
2022-11-26T13:06:00.725Z,10.73
2022-11-26T13:08:55.666Z,10.74
2022-11-26T13:11:47.712Z,10.82
2022-11-26T13:14:56.782Z,10.75
2022-11-26T13:17:44.810Z,10.75
2022-11-26T13:20:52.555Z,10.61
2022-11-26T13:23:51.651Z,10.67
2022-11-26T13:26:46.075Z,10.61
2022-11-26T13:29:47.128Z,10.70
2022-11-26T13:32:42.037Z,10.52
2022-11-26T13:35:34.274Z,10.64
2022-11-26T13:38:26.019Z,10.66
2022-11-26T13:41:33.538Z,10.64
2022-11-26T13:44:34.825Z,10.66
2022-11-26T13:47:35.850Z,10.56
2022-11-26T13:50:29.919Z,10.60
2022-11-26T13:53:25.078Z,10.61
2022-11-26T13:56:13.506Z,10.54
2022-11-26T13:59:02.824Z,10.48
2022-11-26T14:01:49.202Z,10.49
2022-11-26T14:04:35.397Z,10.55
2022-11-26T14:07:21.652Z,10.48
2022-11-26T14:10:30.735Z,10.47
2022-11-26T14:13:17.348Z,10.42
2022-11-26T14:16:07.121Z,10.48
2022-11-26T14:18:56.666Z,10.43
2022-11-26T14:21:58.222Z,10.38
2022-11-26T14:24:50.089Z,10.28
2022-11-26T14:27:50.092Z,10.32
2022-11-26T14:30:36.307Z,10.34
2022-11-26T14:33:27.474Z,10.35
2022-11-26T14:36:25.071Z,10.28
2022-11-26T14:39:16.833Z,10.31
2022-11-26T14:42:06.285Z,10.30
2022-11-26T14:45:15.620Z,10.17
2022-11-26T14:48:02.378Z,10.28
2022-11-26T14:50:48.632Z,10.28
2022-11-26T14:53:34.981Z,10.25
2022-11-26T14:56:23.060Z,10.24
2022-11-26T14:59:14.313Z,10.19
2022-11-26T15:02:00.178Z,10.15
2022-11-26T15:04:46.151Z,10.19
2022-11-26T15:07:32.182Z,10.18
2022-11-26T15:10:20.866Z,10.10
2022-11-26T15:13:13.073Z,10.14
2022-11-26T15:16:04.304Z,10.15
2022-11-26T15:18:52.611Z,10.04
2022-11-26T15:21:40.743Z,10.09
2022-11-26T15:24:26.932Z,10.01
2022-11-26T15:27:36.623Z,10.01
2022-11-26T15:30:24.442Z,9.98
2022-11-26T15:33:13.797Z,10.09
2022-11-26T15:36:00.298Z,10.05
2022-11-26T15:39:06.447Z,9.94
2022-11-26T15:41:52.882Z,9.99
2022-11-26T15:44:42.534Z,9.98
2022-11-26T15:47:29.229Z,10.01
2022-11-26T15:50:31.598Z,9.89
2022-11-26T15:53:20.111Z,9.89
2022-11-26T15:56:06.715Z,9.93
2022-11-26T15:58:55.894Z,9.93
2022-11-26T16:01:44.951Z,9.84
2022-11-26T16:04:38.171Z,9.67
2022-11-26T16:07:27.681Z,9.80
2022-11-26T16:10:16.587Z,9.79
2022-11-26T16:13:11.755Z,9.76
2022-11-26T16:16:03.763Z,9.72
2022-11-26T16:18:59.768Z,9.69
2022-11-26T16:21:51.231Z,9.62
2022-11-26T16:24:43.711Z,9.66
2022-11-26T16:27:31.642Z,9.67
2022-11-26T16:30:17.979Z,9.62
2022-11-26T16:33:04.537Z,9.63
2022-11-26T16:35:50.874Z,9.60
2022-11-26T16:38:36.733Z,9.64
2022-11-26T16:41:23.437Z,9.58
2022-11-26T16:44:09.805Z,9.50
2022-11-26T16:46:55.888Z,9.59
2022-11-26T16:49:41.999Z,9.55
2022-11-26T16:52:28.172Z,9.52
2022-11-26T16:55:16.078Z,9.51
2022-11-26T16:58:02.404Z,9.48
2022-11-26T17:00:51.186Z,9.54
2022-11-26T17:03:37.175Z,9.48
2022-11-26T17:06:24.870Z,9.49
2022-11-26T17:09:20.632Z,9.45
2022-11-26T17:12:17.807Z,9.37
2022-11-26T17:15:07.659Z,9.36
2022-11-26T17:18:06.868Z,9.38
2022-11-26T17:20:54.137Z,9.41
2022-11-26T17:23:42.802Z,9.30
2022-11-26T17:26:29.067Z,9.40
2022-11-26T17:29:15.159Z,9.33
2022-11-26T17:32:01.206Z,9.37
2022-11-26T17:34:48.147Z,9.34
2022-11-26T17:37:34.684Z,9.41
2022-11-26T17:40:22.045Z,9.32
2022-11-26T17:43:07.885Z,9.35
2022-11-26T17:45:54.211Z,9.29
2022-11-26T17:48:40.055Z,9.31
2022-11-26T17:51:25.872Z,9.32
2022-11-26T17:54:11.777Z,9.26
2022-11-26T17:56:57.726Z,9.25
2022-11-26T17:59:44.265Z,9.22
2022-11-26T18:02:30.553Z,9.26
2022-11-26T18:05:16.684Z,9.18
2022-11-26T18:08:02.940Z,9.13
2022-11-26T18:10:49.027Z,9.16
2022-11-26T18:13:34.999Z,9.18
2022-11-26T18:16:21.540Z,9.16
2022-11-26T18:19:09.030Z,9.21
2022-11-26T18:21:55.147Z,9.17
2022-11-26T18:24:41.180Z,9.14
2022-11-26T18:27:28.796Z,9.14
2022-11-26T18:30:15.539Z,9.17
2022-11-26T18:33:01.883Z,9.15
2022-11-26T18:35:50.833Z,9.11
2022-11-26T18:38:38.094Z,9.08
2022-11-26T18:41:24.317Z,9.06
2022-11-26T18:44:11.083Z,9.08
2022-11-26T18:46:57.156Z,9.09
2022-11-26T18:49:46.297Z,9.07
2022-11-26T18:52:33.905Z,9.11
2022-11-26T18:55:19.817Z,9.06
2022-11-26T18:58:08.154Z,9.07
2022-11-26T19:00:58.577Z,9.09
2022-11-26T19:03:44.552Z,9.08
2022-11-26T19:06:31.883Z,9.07
2022-11-26T19:09:19.839Z,9.05
2022-11-26T19:12:06.275Z,9.03
2022-11-26T19:14:52.047Z,8.98
2022-11-26T19:17:38.092Z,8.89
2022-11-26T19:20:24.349Z,8.97
2022-11-26T19:23:10.275Z,8.98
2022-11-26T19:25:56.491Z,9.01
2022-11-26T19:28:42.950Z,8.87
2022-11-26T19:31:30.618Z,8.91
2022-11-26T19:34:17.307Z,8.91
2022-11-26T19:37:03.443Z,8.96
2022-11-26T19:39:49.267Z,8.94
2022-11-26T19:42:35.348Z,8.80
2022-11-26T19:45:21.236Z,8.89
2022-11-26T19:48:07.053Z,8.89
2022-11-26T19:50:56.470Z,8.93
2022-11-26T19:53:42.939Z,8.82
2022-11-26T19:56:30.943Z,8.93
2022-11-26T19:59:17.162Z,8.86
2022-11-26T20:02:03.579Z,8.81
2022-11-26T20:04:49.503Z,8.87
2022-11-26T20:07:35.947Z,8.77
2022-11-26T20:10:21.969Z,8.79
2022-11-26T20:13:08.593Z,8.82
2022-11-26T20:15:55.250Z,8.86
2022-11-26T20:18:41.405Z,8.84
2022-11-26T20:21:29.196Z,8.85
2022-11-26T20:24:17.090Z,8.87
2022-11-26T20:27:03.067Z,8.82
2022-11-26T20:29:49.443Z,8.84
2022-11-26T20:32:36.877Z,8.77
2022-11-26T20:35:23.330Z,8.83
2022-11-26T20:38:09.941Z,8.80
2022-11-26T20:40:56.311Z,8.77
2022-11-26T20:43:42.714Z,8.87
2022-11-26T20:46:28.993Z,8.81
2022-11-26T20:49:16.194Z,8.80
2022-11-26T20:52:02.329Z,8.84
2022-11-26T20:54:52.262Z,8.81
2022-11-26T20:57:39.651Z,8.78
2022-11-26T21:00:27.682Z,8.77
2022-11-26T21:03:14.427Z,8.75
2022-11-26T21:06:04.031Z,8.65
2022-11-26T21:08:50.206Z,8.74
2022-11-26T21:11:37.533Z,8.79
2022-11-26T21:14:23.550Z,8.76
2022-11-26T21:17:09.937Z,8.76
2022-11-26T21:19:56.356Z,8.77
2022-11-26T21:22:42.690Z,8.77
2022-11-26T21:25:28.845Z,8.75
2022-11-26T21:28:15.117Z,8.76
2022-11-26T21:31:21.792Z,8.71
2022-11-26T21:34:11.182Z,8.72
2022-11-26T21:36:56.988Z,8.72
2022-11-26T21:39:43.003Z,8.68
2022-11-26T21:42:33.134Z,8.69
2022-11-26T21:45:19.103Z,8.65
2022-11-26T21:48:05.536Z,8.65
2022-11-26T21:50:51.731Z,8.66
2022-11-26T21:53:37.853Z,8.68
2022-11-26T21:56:26.386Z,8.67
2022-11-26T21:59:12.475Z,8.62
2022-11-26T22:01:58.509Z,8.61
2022-11-26T22:04:44.369Z,8.61
2022-11-26T22:07:30.712Z,8.60
2022-11-26T22:10:17.213Z,8.58
2022-11-26T22:13:02.968Z,8.53
2022-11-26T22:15:49.100Z,8.60
2022-11-26T22:18:37.203Z,8.56
2022-11-26T22:21:25.904Z,8.57
2022-11-26T22:24:14.840Z,8.49
2022-11-26T22:27:00.772Z,8.52
2022-11-26T22:29:46.810Z,8.42
2022-11-26T22:32:32.749Z,8.49
2022-11-26T22:35:18.681Z,8.49
2022-11-26T22:38:04.657Z,8.50
2022-11-26T22:40:50.672Z,8.49
2022-11-26T22:43:36.981Z,8.46
2022-11-26T22:46:23.746Z,8.50
2022-11-26T22:49:15.629Z,8.44
2022-11-26T22:52:01.905Z,8.39
2022-11-26T22:54:48.209Z,8.40
2022-11-26T22:57:34.355Z,8.39
2022-11-26T23:00:47.008Z,8.38
2022-11-26T23:03:35.401Z,8.39
2022-11-26T23:06:23.643Z,8.37
2022-11-26T23:09:11.121Z,8.36
2022-11-26T23:11:57.369Z,8.33
2022-11-26T23:14:43.452Z,8.31
2022-11-26T23:17:29.364Z,8.33
2022-11-26T23:20:15.628Z,8.28
2022-11-26T23:23:01.407Z,8.24
2022-11-26T23:25:47.474Z,8.25
2022-11-26T23:28:35.180Z,8.29
2022-11-26T23:31:26.671Z,8.23
2022-11-26T23:34:13.093Z,8.23
2022-11-26T23:36:59.387Z,8.20
2022-11-26T23:39:45.632Z,8.24
2022-11-26T23:42:31.575Z,8.18
2022-11-26T23:45:17.675Z,8.21
2022-11-26T23:48:03.692Z,8.12
2022-11-26T23:50:49.588Z,8.14
2022-11-26T23:53:37.349Z,8.10
2022-11-26T23:56:29.821Z,8.05
2022-11-26T23:59:15.755Z,8.06
